sensor_id;sensor_type;location;lat;lon;timestamp;temperature;humidity
30534;DHT22;17318;52.390;9.754;2022-07-10T00:01:32;16.70;91.30
30534;DHT22;17318;52.390;9.754;2022-07-10T00:03:58;16.70;91.30
30534;DHT22;17318;52.390;9.754;2022-07-10T00:06:23;16.70;91.30
30534;DHT22;17318;52.390;9.754;2022-07-10T00:08:49;16.80;91.40
30534;DHT22;17318;52.390;9.754;2022-07-10T00:11:14;16.70;91.30
30534;DHT22;17318;52.390;9.754;2022-07-10T00:13:40;16.80;91.30
30534;DHT22;17318;52.390;9.754;2022-07-10T00:16:06;16.80;91.20
30534;DHT22;17318;52.390;9.754;2022-07-10T00:18:32;16.70;91.20
30534;DHT22;17318;52.390;9.754;2022-07-10T00:20:57;16.70;91.30
30534;DHT22;17318;52.390;9.754;2022-07-10T00:23:25;16.60;91.30
30534;DHT22;17318;52.390;9.754;2022-07-10T00:25:51;16.50;91.60
30534;DHT22;17318;52.390;9.754;2022-07-10T00:28:17;16.60;91.50
30534;DHT22;17318;52.390;9.754;2022-07-10T00:30:42;16.50;91.60
30534;DHT22;17318;52.390;9.754;2022-07-10T00:33:08;16.50;91.60
30534;DHT22;17318;52.390;9.754;2022-07-10T00:35:33;16.40;91.70
30534;DHT22;17318;52.390;9.754;2022-07-10T00:37:59;16.40;91.90
30534;DHT22;17318;52.390;9.754;2022-07-10T00:40:25;16.30;92.00
30534;DHT22;17318;52.390;9.754;2022-07-10T00:42:50;16.30;92.00
30534;DHT22;17318;52.390;9.754;2022-07-10T00:45:16;16.30;92.00
30534;DHT22;17318;52.390;9.754;2022-07-10T00:47:42;16.40;91.90
30534;DHT22;17318;52.390;9.754;2022-07-10T00:50:08;16.30;92.00
30534;DHT22;17318;52.390;9.754;2022-07-10T00:52:35;16.40;92.10
30534;DHT22;17318;52.390;9.754;2022-07-10T00:55:05;16.40;92.00
30534;DHT22;17318;52.390;9.754;2022-07-10T00:57:31;16.30;92.10
30534;DHT22;17318;52.390;9.754;2022-07-10T00:59:58;16.30;92.20
30534;DHT22;17318;52.390;9.754;2022-07-10T01:02:24;16.40;92.10
30534;DHT22;17318;52.390;9.754;2022-07-10T01:04:49;16.40;92.10
30534;DHT22;17318;52.390;9.754;2022-07-10T01:07:15;16.40;92.10
30534;DHT22;17318;52.390;9.754;2022-07-10T01:09:41;16.40;92.20
30534;DHT22;17318;52.390;9.754;2022-07-10T01:12:08;16.30;92.20
30534;DHT22;17318;52.390;9.754;2022-07-10T01:14:35;16.40;92.30
30534;DHT22;17318;52.390;9.754;2022-07-10T01:17:04;16.40;92.20
30534;DHT22;17318;52.390;9.754;2022-07-10T01:19:31;16.40;92.20
30534;DHT22;17318;52.390;9.754;2022-07-10T01:21:57;16.30;92.30
30534;DHT22;17318;52.390;9.754;2022-07-10T01:24:22;16.30;92.30
30534;DHT22;17318;52.390;9.754;2022-07-10T01:26:48;16.30;92.40
30534;DHT22;17318;52.390;9.754;2022-07-10T01:29:14;16.30;92.40
30534;DHT22;17318;52.390;9.754;2022-07-10T01:31:40;16.20;92.50
30534;DHT22;17318;52.390;9.754;2022-07-10T01:34:07;16.20;92.60
30534;DHT22;17318;52.390;9.754;2022-07-10T01:36:36;16.10;92.50
30534;DHT22;17318;52.390;9.754;2022-07-10T01:39:03;16.10;92.90
30534;DHT22;17318;52.390;9.754;2022-07-10T01:41:29;16.10;92.70
30534;DHT22;17318;52.390;9.754;2022-07-10T01:43:55;16.10;92.70
30534;DHT22;17318;52.390;9.754;2022-07-10T01:46:21;16.10;92.80
30534;DHT22;17318;52.390;9.754;2022-07-10T01:48:47;16.00;92.90
30534;DHT22;17318;52.390;9.754;2022-07-10T01:51:13;16.00;92.90
30534;DHT22;17318;52.390;9.754;2022-07-10T01:53:40;16.00;93.10
30534;DHT22;17318;52.390;9.754;2022-07-10T01:56:08;16.00;93.20
30534;DHT22;17318;52.390;9.754;2022-07-10T01:58:35;16.00;93.30
30534;DHT22;17318;52.390;9.754;2022-07-10T02:01:01;16.00;93.40
30534;DHT22;17318;52.390;9.754;2022-07-10T02:03:27;15.80;93.80
30534;DHT22;17318;52.390;9.754;2022-07-10T02:06:11;15.80;94.00
30534;DHT22;17318;52.390;9.754;2022-07-10T02:08:37;15.90;94.30
30534;DHT22;17318;52.390;9.754;2022-07-10T02:11:06;15.90;94.10
30534;DHT22;17318;52.390;9.754;2022-07-10T02:13:32;15.90;94.00
30534;DHT22;17318;52.390;9.754;2022-07-10T02:15:58;15.80;94.60
30534;DHT22;17318;52.390;9.754;2022-07-10T02:18:23;15.80;94.40
30534;DHT22;17318;52.390;9.754;2022-07-10T02:20:50;15.90;94.30
30534;DHT22;17318;52.390;9.754;2022-07-10T02:23:16;15.80;94.30
30534;DHT22;17318;52.390;9.754;2022-07-10T02:25:42;15.80;94.20
30534;DHT22;17318;52.390;9.754;2022-07-10T02:28:09;15.80;94.20
30534;DHT22;17318;52.390;9.754;2022-07-10T02:30:35;15.80;94.10
30534;DHT22;17318;52.390;9.754;2022-07-10T02:33:01;15.80;94.50
30534;DHT22;17318;52.390;9.754;2022-07-10T02:35:27;15.90;94.10
30534;DHT22;17318;52.390;9.754;2022-07-10T02:37:53;15.80;94.10
30534;DHT22;17318;52.390;9.754;2022-07-10T02:40:19;15.80;94.30
30534;DHT22;17318;52.390;9.754;2022-07-10T02:42:45;15.80;94.20
30534;DHT22;17318;52.390;9.754;2022-07-10T02:45:10;15.80;94.20
30534;DHT22;17318;52.390;9.754;2022-07-10T02:47:36;15.70;94.40
30534;DHT22;17318;52.390;9.754;2022-07-10T02:50:02;15.70;94.60
30534;DHT22;17318;52.390;9.754;2022-07-10T02:52:28;15.70;94.60
30534;DHT22;17318;52.390;9.754;2022-07-10T02:54:56;15.80;94.70
30534;DHT22;17318;52.390;9.754;2022-07-10T02:57:23;15.70;94.70
30534;DHT22;17318;52.390;9.754;2022-07-10T02:59:48;15.80;94.70
30534;DHT22;17318;52.390;9.754;2022-07-10T03:02:15;15.70;94.80
30534;DHT22;17318;52.390;9.754;2022-07-10T03:04:40;15.80;94.70
30534;DHT22;17318;52.390;9.754;2022-07-10T03:07:06;15.80;94.70
30534;DHT22;17318;52.390;9.754;2022-07-10T03:09:32;15.80;94.80
30534;DHT22;17318;52.390;9.754;2022-07-10T03:11:58;15.90;94.70
30534;DHT22;17318;52.390;9.754;2022-07-10T03:14:23;15.90;94.80
30534;DHT22;17318;52.390;9.754;2022-07-10T03:16:49;15.80;94.90
30534;DHT22;17318;52.390;9.754;2022-07-10T03:19:15;15.90;94.90
30534;DHT22;17318;52.390;9.754;2022-07-10T03:21:40;15.80;95.10
30534;DHT22;17318;52.390;9.754;2022-07-10T03:24:06;15.70;95.30
30534;DHT22;17318;52.390;9.754;2022-07-10T03:26:31;15.80;95.30
30534;DHT22;17318;52.390;9.754;2022-07-10T03:28:57;15.80;95.30
30534;DHT22;17318;52.390;9.754;2022-07-10T03:31:23;15.90;95.20
30534;DHT22;17318;52.390;9.754;2022-07-10T03:33:49;15.90;95.40
30534;DHT22;17318;52.390;9.754;2022-07-10T03:36:14;15.80;95.40
30534;DHT22;17318;52.390;9.754;2022-07-10T03:38:41;15.90;95.50
30534;DHT22;17318;52.390;9.754;2022-07-10T03:41:06;16.00;95.30
30534;DHT22;17318;52.390;9.754;2022-07-10T03:43:32;15.90;95.50
30534;DHT22;17318;52.390;9.754;2022-07-10T03:45:58;15.80;95.60
30534;DHT22;17318;52.390;9.754;2022-07-10T03:48:24;15.80;95.60
30534;DHT22;17318;52.390;9.754;2022-07-10T03:50:51;15.80;95.80
30534;DHT22;17318;52.390;9.754;2022-07-10T03:53:17;15.90;95.70
30534;DHT22;17318;52.390;9.754;2022-07-10T03:55:43;15.80;95.70
30534;DHT22;17318;52.390;9.754;2022-07-10T03:58:10;15.90;95.70
30534;DHT22;17318;52.390;9.754;2022-07-10T04:00:36;15.90;95.60
30534;DHT22;17318;52.390;9.754;2022-07-10T04:03:06;15.80;95.70
30534;DHT22;17318;52.390;9.754;2022-07-10T04:05:33;15.90;95.80
30534;DHT22;17318;52.390;9.754;2022-07-10T04:08:02;15.80;95.90
30534;DHT22;17318;52.390;9.754;2022-07-10T04:10:29;15.80;95.80
30534;DHT22;17318;52.390;9.754;2022-07-10T04:12:55;15.90;95.60
30534;DHT22;17318;52.390;9.754;2022-07-10T04:15:21;15.90;95.60
30534;DHT22;17318;52.390;9.754;2022-07-10T04:17:48;15.90;95.60
30534;DHT22;17318;52.390;9.754;2022-07-10T04:20:14;15.90;95.70
30534;DHT22;17318;52.390;9.754;2022-07-10T04:22:41;15.90;95.60
30534;DHT22;17318;52.390;9.754;2022-07-10T04:25:07;15.90;95.70
30534;DHT22;17318;52.390;9.754;2022-07-10T04:27:33;15.90;95.60
30534;DHT22;17318;52.390;9.754;2022-07-10T04:29:59;15.90;95.70
30534;DHT22;17318;52.390;9.754;2022-07-10T04:32:24;15.90;95.60
30534;DHT22;17318;52.390;9.754;2022-07-10T04:34:50;16.00;95.80
30534;DHT22;17318;52.390;9.754;2022-07-10T04:37:16;16.00;95.50
30534;DHT22;17318;52.390;9.754;2022-07-10T04:39:42;15.90;95.70
30534;DHT22;17318;52.390;9.754;2022-07-10T04:42:08;15.90;95.70
30534;DHT22;17318;52.390;9.754;2022-07-10T04:44:35;15.90;95.70
30534;DHT22;17318;52.390;9.754;2022-07-10T04:47:02;15.90;95.80
30534;DHT22;17318;52.390;9.754;2022-07-10T04:49:28;15.90;95.80
30534;DHT22;17318;52.390;9.754;2022-07-10T04:51:54;15.90;95.90
30534;DHT22;17318;52.390;9.754;2022-07-10T04:54:20;15.80;95.90
30534;DHT22;17318;52.390;9.754;2022-07-10T04:56:45;15.90;95.80
30534;DHT22;17318;52.390;9.754;2022-07-10T04:59:11;15.90;95.70
30534;DHT22;17318;52.390;9.754;2022-07-10T05:01:37;15.80;95.60
30534;DHT22;17318;52.390;9.754;2022-07-10T05:04:03;15.90;95.40
30534;DHT22;17318;52.390;9.754;2022-07-10T05:06:29;15.80;95.50
30534;DHT22;17318;52.390;9.754;2022-07-10T05:08:55;15.90;95.50
30534;DHT22;17318;52.390;9.754;2022-07-10T05:11:21;15.90;95.50
30534;DHT22;17318;52.390;9.754;2022-07-10T05:13:47;15.80;95.40
30534;DHT22;17318;52.390;9.754;2022-07-10T05:16:15;15.80;95.60
30534;DHT22;17318;52.390;9.754;2022-07-10T05:18:41;15.80;95.50
30534;DHT22;17318;52.390;9.754;2022-07-10T05:21:07;15.80;95.50
30534;DHT22;17318;52.390;9.754;2022-07-10T05:23:33;15.90;95.40
30534;DHT22;17318;52.390;9.754;2022-07-10T05:25:59;15.90;95.40
30534;DHT22;17318;52.390;9.754;2022-07-10T05:28:24;16.00;95.50
30534;DHT22;17318;52.390;9.754;2022-07-10T05:30:50;16.00;95.60
30534;DHT22;17318;52.390;9.754;2022-07-10T05:33:17;16.00;95.40
30534;DHT22;17318;52.390;9.754;2022-07-10T05:35:42;16.00;95.30
30534;DHT22;17318;52.390;9.754;2022-07-10T05:38:08;16.00;95.40
30534;DHT22;17318;52.390;9.754;2022-07-10T05:40:34;16.10;95.40
30534;DHT22;17318;52.390;9.754;2022-07-10T05:43:00;16.00;95.30
30534;DHT22;17318;52.390;9.754;2022-07-10T05:45:26;16.00;95.50
30534;DHT22;17318;52.390;9.754;2022-07-10T05:47:51;16.10;95.40
30534;DHT22;17318;52.390;9.754;2022-07-10T05:50:17;16.00;95.20
30534;DHT22;17318;52.390;9.754;2022-07-10T05:52:43;16.10;95.30
30534;DHT22;17318;52.390;9.754;2022-07-10T05:55:09;16.10;95.20
30534;DHT22;17318;52.390;9.754;2022-07-10T05:57:35;16.10;95.10
30534;DHT22;17318;52.390;9.754;2022-07-10T06:00:02;16.10;95.00
30534;DHT22;17318;52.390;9.754;2022-07-10T06:02:29;16.10;95.00
30534;DHT22;17318;52.390;9.754;2022-07-10T06:04:55;16.10;95.10
30534;DHT22;17318;52.390;9.754;2022-07-10T06:07:20;16.20;95.10
30534;DHT22;17318;52.390;9.754;2022-07-10T06:09:46;16.30;95.00
30534;DHT22;17318;52.390;9.754;2022-07-10T06:12:12;16.40;94.80
30534;DHT22;17318;52.390;9.754;2022-07-10T06:14:37;16.40;94.80
30534;DHT22;17318;52.390;9.754;2022-07-10T06:17:03;16.40;94.70
30534;DHT22;17318;52.390;9.754;2022-07-10T06:19:29;16.40;94.60
30534;DHT22;17318;52.390;9.754;2022-07-10T06:21:55;16.40;94.60
30534;DHT22;17318;52.390;9.754;2022-07-10T06:24:39;16.40;94.60
30534;DHT22;17318;52.390;9.754;2022-07-10T06:27:05;16.50;94.50
30534;DHT22;17318;52.390;9.754;2022-07-10T06:29:31;16.60;94.40
30534;DHT22;17318;52.390;9.754;2022-07-10T06:31:57;16.40;94.40
30534;DHT22;17318;52.390;9.754;2022-07-10T06:34:23;16.50;94.50
30534;DHT22;17318;52.390;9.754;2022-07-10T06:36:48;16.60;94.30
30534;DHT22;17318;52.390;9.754;2022-07-10T06:39:14;16.60;94.10
30534;DHT22;17318;52.390;9.754;2022-07-10T06:41:40;16.70;94.10
30534;DHT22;17318;52.390;9.754;2022-07-10T06:44:06;16.70;93.90
30534;DHT22;17318;52.390;9.754;2022-07-10T06:46:32;16.80;93.80
30534;DHT22;17318;52.390;9.754;2022-07-10T06:48:58;16.80;93.60
30534;DHT22;17318;52.390;9.754;2022-07-10T06:51:24;16.90;93.60
30534;DHT22;17318;52.390;9.754;2022-07-10T06:53:50;16.90;93.70
30534;DHT22;17318;52.390;9.754;2022-07-10T06:56:16;17.00;93.80
30534;DHT22;17318;52.390;9.754;2022-07-10T06:58:42;17.10;93.70
30534;DHT22;17318;52.390;9.754;2022-07-10T07:01:08;17.20;93.50
30534;DHT22;17318;52.390;9.754;2022-07-10T07:03:34;17.30;93.40
30534;DHT22;17318;52.390;9.754;2022-07-10T07:06:00;17.30;93.00
30534;DHT22;17318;52.390;9.754;2022-07-10T07:08:25;17.30;92.90
30534;DHT22;17318;52.390;9.754;2022-07-10T07:10:51;17.30;92.70
30534;DHT22;17318;52.390;9.754;2022-07-10T07:13:17;17.30;92.60
30534;DHT22;17318;52.390;9.754;2022-07-10T07:15:42;17.30;92.50
30534;DHT22;17318;52.390;9.754;2022-07-10T07:18:14;17.30;92.60
30534;DHT22;17318;52.390;9.754;2022-07-10T07:20:41;17.30;92.50
30534;DHT22;17318;52.390;9.754;2022-07-10T07:23:26;17.40;92.60
30534;DHT22;17318;52.390;9.754;2022-07-10T07:25:52;17.60;92.40
30534;DHT22;17318;52.390;9.754;2022-07-10T07:28:19;17.60;92.10
30534;DHT22;17318;52.390;9.754;2022-07-10T07:30:46;17.60;92.00
30534;DHT22;17318;52.390;9.754;2022-07-10T07:33:12;17.60;92.10
30534;DHT22;17318;52.390;9.754;2022-07-10T07:35:39;17.70;91.90
30534;DHT22;17318;52.390;9.754;2022-07-10T07:38:05;17.70;91.50
30534;DHT22;17318;52.390;9.754;2022-07-10T07:40:32;17.70;91.50
30534;DHT22;17318;52.390;9.754;2022-07-10T07:42:57;17.80;91.20
30534;DHT22;17318;52.390;9.754;2022-07-10T07:45:24;17.80;91.00
30534;DHT22;17318;52.390;9.754;2022-07-10T07:47:58;17.90;90.90
30534;DHT22;17318;52.390;9.754;2022-07-10T07:50:31;17.90;90.60
30534;DHT22;17318;52.390;9.754;2022-07-10T07:52:59;17.80;90.40
30534;DHT22;17318;52.390;9.754;2022-07-10T07:55:25;17.80;90.40
30534;DHT22;17318;52.390;9.754;2022-07-10T07:57:52;17.90;90.50
30534;DHT22;17318;52.390;9.754;2022-07-10T08:00:22;18.00;90.10
30534;DHT22;17318;52.390;9.754;2022-07-10T08:02:49;18.20;90.10
30534;DHT22;17318;52.390;9.754;2022-07-10T08:05:16;18.40;89.10
30534;DHT22;17318;52.390;9.754;2022-07-10T08:07:45;18.50;87.60
30534;DHT22;17318;52.390;9.754;2022-07-10T08:10:15;18.60;86.60
30534;DHT22;17318;52.390;9.754;2022-07-10T08:12:42;18.70;86.10
30534;DHT22;17318;52.390;9.754;2022-07-10T08:15:10;19.00;86.40
30534;DHT22;17318;52.390;9.754;2022-07-10T08:17:36;19.00;85.70
30534;DHT22;17318;52.390;9.754;2022-07-10T08:20:04;19.00;85.40
30534;DHT22;17318;52.390;9.754;2022-07-10T08:22:31;19.10;85.20
30534;DHT22;17318;52.390;9.754;2022-07-10T08:24:57;19.60;83.10
30534;DHT22;17318;52.390;9.754;2022-07-10T08:27:23;20.10;81.10
30534;DHT22;17318;52.390;9.754;2022-07-10T08:29:48;20.00;79.50
30534;DHT22;17318;52.390;9.754;2022-07-10T08:32:14;19.90;79.50
30534;DHT22;17318;52.390;9.754;2022-07-10T08:34:40;20.00;80.00
30534;DHT22;17318;52.390;9.754;2022-07-10T08:37:06;20.00;81.20
30534;DHT22;17318;52.390;9.754;2022-07-10T08:39:32;19.90;80.60
30534;DHT22;17318;52.390;9.754;2022-07-10T08:41:59;20.00;79.40
30534;DHT22;17318;52.390;9.754;2022-07-10T08:44:25;20.00;80.00
30534;DHT22;17318;52.390;9.754;2022-07-10T08:46:51;19.60;79.60
30534;DHT22;17318;52.390;9.754;2022-07-10T08:49:17;19.90;80.20
30534;DHT22;17318;52.390;9.754;2022-07-10T08:54:24;21.30;78.00
30534;DHT22;17318;52.390;9.754;2022-07-10T08:56:50;21.50;75.40
30534;DHT22;17318;52.390;9.754;2022-07-10T08:59:18;21.30;76.60
30534;DHT22;17318;52.390;9.754;2022-07-10T09:01:44;21.30;76.80
30534;DHT22;17318;52.390;9.754;2022-07-10T09:04:20;21.10;75.80
30534;DHT22;17318;52.390;9.754;2022-07-10T09:06:46;20.90;77.10
30534;DHT22;17318;52.390;9.754;2022-07-10T09:09:13;20.60;76.50
30534;DHT22;17318;52.390;9.754;2022-07-10T09:11:40;20.70;76.80
30534;DHT22;17318;52.390;9.754;2022-07-10T09:14:10;20.40;77.00
30534;DHT22;17318;52.390;9.754;2022-07-10T09:16:42;20.40;77.70
30534;DHT22;17318;52.390;9.754;2022-07-10T09:19:21;20.10;80.30
30534;DHT22;17318;52.390;9.754;2022-07-10T09:21:49;20.00;81.70
30534;DHT22;17318;52.390;9.754;2022-07-10T09:24:15;19.90;81.70
30534;DHT22;17318;52.390;9.754;2022-07-10T09:29:22;19.50;82.90
30534;DHT22;17318;52.390;9.754;2022-07-10T09:31:52;19.20;84.00
30534;DHT22;17318;52.390;9.754;2022-07-10T09:34:38;19.50;84.80
30534;DHT22;17318;52.390;9.754;2022-07-10T09:37:24;19.70;83.70
30534;DHT22;17318;52.390;9.754;2022-07-10T09:40:01;19.90;82.80
30534;DHT22;17318;52.390;9.754;2022-07-10T09:47:57;19.50;84.10
30534;DHT22;17318;52.390;9.754;2022-07-10T09:53:07;19.40;85.70
30534;DHT22;17318;52.390;9.754;2022-07-10T09:55:37;19.40;85.30
30534;DHT22;17318;52.390;9.754;2022-07-10T09:58:07;19.60;85.50
30534;DHT22;17318;52.390;9.754;2022-07-10T10:00:35;19.80;83.40
30534;DHT22;17318;52.390;9.754;2022-07-10T10:03:05;20.10;83.10
30534;DHT22;17318;52.390;9.754;2022-07-10T10:05:54;20.30;82.00
30534;DHT22;17318;52.390;9.754;2022-07-10T10:08:25;20.80;82.00
30534;DHT22;17318;52.390;9.754;2022-07-10T10:10:53;20.80;78.30
30534;DHT22;17318;52.390;9.754;2022-07-10T10:13:23;21.00;78.30
30534;DHT22;17318;52.390;9.754;2022-07-10T10:15:51;21.20;77.10
30534;DHT22;17318;52.390;9.754;2022-07-10T10:18:21;21.20;76.80
30534;DHT22;17318;52.390;9.754;2022-07-10T10:20:47;21.20;78.10
30534;DHT22;17318;52.390;9.754;2022-07-10T10:23:15;21.30;76.40
30534;DHT22;17318;52.390;9.754;2022-07-10T10:25:51;21.10;76.80
30534;DHT22;17318;52.390;9.754;2022-07-10T10:28:18;21.40;76.30
30534;DHT22;17318;52.390;9.754;2022-07-10T10:30:57;21.20;74.70
30534;DHT22;17318;52.390;9.754;2022-07-10T10:35:59;21.30;74.70
30534;DHT22;17318;52.390;9.754;2022-07-10T10:38:34;21.40;74.30
30534;DHT22;17318;52.390;9.754;2022-07-10T10:41:48;21.40;74.10
30534;DHT22;17318;52.390;9.754;2022-07-10T10:49:20;21.20;72.80
30534;DHT22;17318;52.390;9.754;2022-07-10T11:00:12;21.60;71.40
30534;DHT22;17318;52.390;9.754;2022-07-10T11:02:40;21.40;71.40
30534;DHT22;17318;52.390;9.754;2022-07-10T11:07:55;21.50;70.40
30534;DHT22;17318;52.390;9.754;2022-07-10T11:10:35;21.40;70.00
30534;DHT22;17318;52.390;9.754;2022-07-10T11:13:05;21.30;70.30
30534;DHT22;17318;52.390;9.754;2022-07-10T11:15:32;21.40;70.40
30534;DHT22;17318;52.390;9.754;2022-07-10T11:18:10;21.60;70.50
30534;DHT22;17318;52.390;9.754;2022-07-10T11:20:38;21.60;70.30
30534;DHT22;17318;52.390;9.754;2022-07-10T11:26:36;21.20;71.30
30534;DHT22;17318;52.390;9.754;2022-07-10T11:29:05;21.60;71.50
30534;DHT22;17318;52.390;9.754;2022-07-10T11:31:32;21.30;70.30
30534;DHT22;17318;52.390;9.754;2022-07-10T11:34:03;21.50;70.80
30534;DHT22;17318;52.390;9.754;2022-07-10T11:36:30;21.60;69.40
30534;DHT22;17318;52.390;9.754;2022-07-10T11:38:58;21.70;69.30
30534;DHT22;17318;52.390;9.754;2022-07-10T11:41:24;21.60;69.30
30534;DHT22;17318;52.390;9.754;2022-07-10T11:43:55;21.60;69.10
30534;DHT22;17318;52.390;9.754;2022-07-10T11:46:23;21.60;69.20
30534;DHT22;17318;52.390;9.754;2022-07-10T11:48:50;21.70;69.60
30534;DHT22;17318;52.390;9.754;2022-07-10T11:51:32;21.80;69.10
30534;DHT22;17318;52.390;9.754;2022-07-10T11:54:06;21.50;68.40
30534;DHT22;17318;52.390;9.754;2022-07-10T11:56:37;21.40;67.50
30534;DHT22;17318;52.390;9.754;2022-07-10T11:59:06;21.40;68.40
30534;DHT22;17318;52.390;9.754;2022-07-10T12:01:34;21.30;67.80
30534;DHT22;17318;52.390;9.754;2022-07-10T12:06:30;21.00;69.80
30534;DHT22;17318;52.390;9.754;2022-07-10T12:09:03;21.00;70.70
30534;DHT22;17318;52.390;9.754;2022-07-10T12:11:29;21.00;71.10
30534;DHT22;17318;52.390;9.754;2022-07-10T12:14:12;21.10;71.50
30534;DHT22;17318;52.390;9.754;2022-07-10T12:16:44;21.00;72.20
30534;DHT22;17318;52.390;9.754;2022-07-10T12:19:13;21.30;72.80
30534;DHT22;17318;52.390;9.754;2022-07-10T12:21:43;21.40;72.80
30534;DHT22;17318;52.390;9.754;2022-07-10T12:24:10;21.30;72.90
30534;DHT22;17318;52.390;9.754;2022-07-10T12:26:41;21.10;74.10
30534;DHT22;17318;52.390;9.754;2022-07-10T12:29:32;20.80;75.10
30534;DHT22;17318;52.390;9.754;2022-07-10T12:32:01;20.80;75.80
30534;DHT22;17318;52.390;9.754;2022-07-10T12:34:37;20.70;75.50
30534;DHT22;17318;52.390;9.754;2022-07-10T12:37:09;20.70;75.90
30534;DHT22;17318;52.390;9.754;2022-07-10T12:39:37;20.90;75.90
30534;DHT22;17318;52.390;9.754;2022-07-10T12:42:05;21.10;75.80
30534;DHT22;17318;52.390;9.754;2022-07-10T12:44:45;21.00;76.30
30534;DHT22;17318;52.390;9.754;2022-07-10T12:47:18;21.10;76.10
30534;DHT22;17318;52.390;9.754;2022-07-10T12:49:56;21.10;76.00
30534;DHT22;17318;52.390;9.754;2022-07-10T12:55:12;21.00;77.40
30534;DHT22;17318;52.390;9.754;2022-07-10T12:57:52;20.90;77.50
30534;DHT22;17318;52.390;9.754;2022-07-10T13:00:23;20.80;78.00
30534;DHT22;17318;52.390;9.754;2022-07-10T13:02:50;20.90;78.10
30534;DHT22;17318;52.390;9.754;2022-07-10T13:05:43;20.70;77.70
30534;DHT22;17318;52.390;9.754;2022-07-10T13:08:16;20.50;78.30
30534;DHT22;17318;52.390;9.754;2022-07-10T13:10:48;20.50;78.70
30534;DHT22;17318;52.390;9.754;2022-07-10T13:13:15;20.40;79.00
30534;DHT22;17318;52.390;9.754;2022-07-10T13:15:42;20.30;79.80
30534;DHT22;17318;52.390;9.754;2022-07-10T13:18:26;20.20;80.30
30534;DHT22;17318;52.390;9.754;2022-07-10T13:20:54;20.10;80.70
30534;DHT22;17318;52.390;9.754;2022-07-10T13:23:20;20.00;81.20
30534;DHT22;17318;52.390;9.754;2022-07-10T13:25:55;19.90;82.20
30534;DHT22;17318;52.390;9.754;2022-07-10T13:28:24;19.80;82.40
30534;DHT22;17318;52.390;9.754;2022-07-10T13:30:50;19.90;82.50
30534;DHT22;17318;52.390;9.754;2022-07-10T13:33:16;19.80;83.70
30534;DHT22;17318;52.390;9.754;2022-07-10T13:35:43;19.80;83.60
30534;DHT22;17318;52.390;9.754;2022-07-10T13:38:08;19.90;83.90
30534;DHT22;17318;52.390;9.754;2022-07-10T13:40:36;19.80;84.30
30534;DHT22;17318;52.390;9.754;2022-07-10T13:43:03;19.80;85.00
30534;DHT22;17318;52.390;9.754;2022-07-10T13:45:30;19.70;86.00
30534;DHT22;17318;52.390;9.754;2022-07-10T13:47:59;19.80;86.50
30534;DHT22;17318;52.390;9.754;2022-07-10T13:50:25;19.70;86.30
30534;DHT22;17318;52.390;9.754;2022-07-10T13:52:51;19.80;86.20
30534;DHT22;17318;52.390;9.754;2022-07-10T13:55:17;19.80;86.60
30534;DHT22;17318;52.390;9.754;2022-07-10T13:57:43;19.80;87.00
30534;DHT22;17318;52.390;9.754;2022-07-10T14:00:10;19.70;87.20
30534;DHT22;17318;52.390;9.754;2022-07-10T14:02:37;19.70;87.70
30534;DHT22;17318;52.390;9.754;2022-07-10T14:05:03;19.70;87.60
30534;DHT22;17318;52.390;9.754;2022-07-10T14:07:28;19.90;87.30
30534;DHT22;17318;52.390;9.754;2022-07-10T14:09:54;19.90;85.90
30534;DHT22;17318;52.390;9.754;2022-07-10T14:12:20;19.70;86.00
30534;DHT22;17318;52.390;9.754;2022-07-10T14:14:46;19.80;86.30
30534;DHT22;17318;52.390;9.754;2022-07-10T14:17:12;19.70;86.40
30534;DHT22;17318;52.390;9.754;2022-07-10T14:19:38;19.50;88.00
30534;DHT22;17318;52.390;9.754;2022-07-10T14:22:04;19.50;87.50
30534;DHT22;17318;52.390;9.754;2022-07-10T14:24:29;19.40;87.80
30534;DHT22;17318;52.390;9.754;2022-07-10T14:26:55;19.10;91.80
30534;DHT22;17318;52.390;9.754;2022-07-10T14:29:21;19.10;93.60
30534;DHT22;17318;52.390;9.754;2022-07-10T14:31:47;19.20;93.60
30534;DHT22;17318;52.390;9.754;2022-07-10T14:34:18;19.10;93.50
30534;DHT22;17318;52.390;9.754;2022-07-10T14:36:44;19.20;93.20
30534;DHT22;17318;52.390;9.754;2022-07-10T14:39:10;19.30;92.40
30534;DHT22;17318;52.390;9.754;2022-07-10T14:41:37;19.40;92.10
30534;DHT22;17318;52.390;9.754;2022-07-10T14:44:04;19.40;91.30
30534;DHT22;17318;52.390;9.754;2022-07-10T14:46:30;19.40;91.00
30534;DHT22;17318;52.390;9.754;2022-07-10T14:48:55;19.60;90.70
30534;DHT22;17318;52.390;9.754;2022-07-10T14:51:21;19.60;90.20
30534;DHT22;17318;52.390;9.754;2022-07-10T14:53:47;19.50;90.00
30534;DHT22;17318;52.390;9.754;2022-07-10T14:56:13;19.60;89.90
30534;DHT22;17318;52.390;9.754;2022-07-10T14:58:42;19.70;89.50
30534;DHT22;17318;52.390;9.754;2022-07-10T15:01:07;19.60;88.90
30534;DHT22;17318;52.390;9.754;2022-07-10T15:03:34;19.60;88.20
30534;DHT22;17318;52.390;9.754;2022-07-10T15:06:00;19.60;88.00
30534;DHT22;17318;52.390;9.754;2022-07-10T15:08:26;19.70;87.90
30534;DHT22;17318;52.390;9.754;2022-07-10T15:10:52;19.80;88.50
30534;DHT22;17318;52.390;9.754;2022-07-10T15:13:18;20.00;87.80
30534;DHT22;17318;52.390;9.754;2022-07-10T15:15:43;20.10;87.40
30534;DHT22;17318;52.390;9.754;2022-07-10T15:18:09;20.00;87.00
30534;DHT22;17318;52.390;9.754;2022-07-10T15:20:35;20.00;86.90
30534;DHT22;17318;52.390;9.754;2022-07-10T15:23:03;20.00;87.00
30534;DHT22;17318;52.390;9.754;2022-07-10T15:25:29;20.20;87.30
30534;DHT22;17318;52.390;9.754;2022-07-10T15:27:55;20.10;87.00
30534;DHT22;17318;52.390;9.754;2022-07-10T15:30:21;20.00;86.90
30534;DHT22;17318;52.390;9.754;2022-07-10T15:32:47;19.90;87.70
30534;DHT22;17318;52.390;9.754;2022-07-10T15:35:13;19.70;88.50
30534;DHT22;17318;52.390;9.754;2022-07-10T15:37:39;19.70;88.40
30534;DHT22;17318;52.390;9.754;2022-07-10T15:40:05;19.60;89.20
30534;DHT22;17318;52.390;9.754;2022-07-10T15:42:31;19.70;89.50
30534;DHT22;17318;52.390;9.754;2022-07-10T15:44:57;19.60;90.00
30534;DHT22;17318;52.390;9.754;2022-07-10T15:47:23;19.60;90.40
30534;DHT22;17318;52.390;9.754;2022-07-10T15:49:48;19.60;90.70
30534;DHT22;17318;52.390;9.754;2022-07-10T15:52:14;19.40;91.00
30534;DHT22;17318;52.390;9.754;2022-07-10T15:54:40;19.50;91.30
30534;DHT22;17318;52.390;9.754;2022-07-10T15:57:07;19.40;91.20
30534;DHT22;17318;52.390;9.754;2022-07-10T15:59:33;19.60;91.10
30534;DHT22;17318;52.390;9.754;2022-07-10T16:02:00;19.60;90.90
30534;DHT22;17318;52.390;9.754;2022-07-10T16:04:27;19.60;90.90
30534;DHT22;17318;52.390;9.754;2022-07-10T16:06:53;19.60;90.90
30534;DHT22;17318;52.390;9.754;2022-07-10T16:09:19;19.50;91.20
30534;DHT22;17318;52.390;9.754;2022-07-10T16:11:46;19.50;90.90
30534;DHT22;17318;52.390;9.754;2022-07-10T16:14:12;19.50;91.10